createdAt,value
2023-05-11T00:03:20.826Z,12.75
2023-05-11T00:08:22.899Z,12.73
2023-05-11T00:13:23.517Z,12.71
2023-05-11T00:18:20.647Z,12.68
2023-05-11T00:23:20.658Z,12.66
2023-05-11T00:28:23.243Z,12.65
2023-05-11T00:33:20.721Z,12.61
2023-05-11T00:38:20.588Z,12.61
2023-05-11T00:43:22.792Z,12.58
2023-05-11T00:48:20.609Z,12.56
2023-05-11T00:53:20.782Z,12.55
2023-05-11T00:58:22.893Z,12.53
2023-05-11T01:03:20.896Z,12.5
2023-05-11T01:08:22.759Z,12.48
2023-05-11T01:13:30.869Z,12.47
2023-05-11T01:18:24.264Z,12.43
2023-05-11T01:23:31.544Z,12.43
2023-05-11T01:28:27.494Z,12.4
2023-05-11T01:33:22.634Z,12.4
2023-05-11T01:38:21.197Z,12.39
2023-05-11T01:43:23.108Z,12.37
2023-05-11T01:48:21.585Z,12.36
2023-05-11T01:53:21.259Z,12.33
2023-05-11T01:58:21.364Z,12.32
2023-05-11T02:03:20.737Z,12.3
2023-05-11T02:08:20.924Z,12.29
2023-05-11T02:13:21.831Z,12.28
2023-05-11T02:18:20.704Z,12.25
2023-05-11T02:23:21.340Z,12.23
2023-05-11T02:28:20.395Z,12.22
2023-05-11T02:33:25.494Z,12.2
2023-05-11T02:38:21.905Z,12.19
2023-05-11T02:43:25.814Z,12.17
2023-05-11T02:48:23.852Z,12.14
2023-05-11T02:58:20.685Z,12.1
2023-05-11T03:03:20.726Z,12.07
2023-05-11T03:08:21.712Z,12.05
2023-05-11T03:13:20.594Z,12.02
2023-05-11T03:18:20.797Z,11.98
2023-05-11T03:23:20.785Z,11.97
2023-05-11T03:28:22.149Z,11.92
2023-05-11T03:33:20.907Z,11.89
2023-05-11T03:38:20.850Z,11.85
2023-05-11T03:43:21.937Z,11.82
2023-05-11T03:48:20.965Z,11.8
2023-05-11T03:53:21.147Z,11.81
2023-05-11T03:58:20.843Z,11.79
2023-05-11T04:03:21.213Z,11.78
2023-05-11T04:08:20.645Z,11.77
2023-05-11T04:13:24.304Z,11.75
2023-05-11T04:18:20.477Z,11.72
2023-05-11T04:23:20.743Z,11.74
2023-05-11T04:28:23.935Z,11.73
2023-05-11T04:33:20.547Z,11.73
2023-05-11T04:38:21.488Z,11.73
2023-05-11T04:43:20.612Z,11.75
2023-05-11T04:48:21.157Z,11.76
2023-05-11T04:53:24.622Z,11.75
2023-05-11T04:58:20.728Z,11.75
2023-05-11T05:03:21.547Z,11.75
2023-05-11T05:08:21.564Z,11.73
2023-05-11T05:13:20.724Z,11.74
2023-05-11T05:18:22.988Z,11.75
2023-05-11T05:23:22.280Z,11.77
2023-05-11T05:28:20.548Z,11.79
2023-05-11T05:33:20.571Z,11.84
2023-05-11T05:38:20.547Z,11.89
2023-05-11T05:43:22.784Z,11.96
2023-05-11T05:48:22.942Z,12.06
2023-05-11T05:53:21.295Z,12.18
2023-05-11T05:58:20.663Z,12.28
2023-05-11T06:03:20.712Z,12.37
2023-05-11T06:08:28.110Z,12.46
2023-05-11T06:13:21.211Z,12.59
2023-05-11T06:18:26.154Z,12.74
2023-05-11T06:23:21.068Z,12.91
2023-05-11T06:28:24.490Z,13.06
2023-05-11T06:33:22.696Z,13.53
2023-05-11T06:38:24.670Z,13.87
2023-05-11T06:43:21.630Z,13.94
2023-05-11T06:48:49.556Z,13.91
2023-05-11T06:53:20.756Z,13.91
2023-05-11T06:58:21.440Z,14.02
2023-05-11T07:03:20.574Z,14.13
2023-05-11T07:08:21.399Z,14.27
2023-05-11T07:13:20.587Z,14.39
2023-05-11T07:18:22.091Z,14.6
2023-05-11T07:23:20.988Z,14.83
2023-05-11T07:28:21.759Z,14.85
2023-05-11T07:33:21.655Z,14.82
2023-05-11T07:38:20.476Z,14.87
2023-05-11T07:43:20.641Z,14.92
2023-05-11T07:48:20.866Z,14.98
2023-05-11T07:53:20.512Z,15.04
2023-05-11T07:58:20.525Z,15.09
2023-05-11T08:03:28.974Z,15.13
2023-05-11T08:08:20.538Z,15.16
2023-05-11T08:13:20.564Z,15.18
2023-05-11T08:18:20.742Z,15.2
2023-05-11T08:23:21.114Z,15.22
2023-05-11T08:28:24.911Z,15.23
2023-05-11T08:33:36.614Z,15.21
2023-05-11T08:38:20.523Z,15.16
2023-05-11T08:43:22.092Z,15.08
2023-05-11T08:48:22.840Z,15.01
2023-05-11T08:53:21.487Z,14.97
2023-05-11T08:58:22.375Z,14.97
2023-05-11T09:03:21.324Z,15.03
2023-05-11T09:08:21.975Z,15.06
2023-05-11T09:13:20.606Z,15.12
2023-05-11T09:18:21.551Z,15.2
2023-05-11T09:23:28.076Z,15.3
2023-05-11T09:33:25.084Z,15.41
2023-05-11T09:38:20.852Z,15.41
2023-05-11T09:43:24.793Z,15.42
2023-05-11T09:48:31.892Z,15.38
2023-05-11T09:53:24.895Z,15.36
2023-05-11T09:58:20.656Z,15.38
2023-05-11T10:03:20.950Z,15.38
2023-05-11T10:08:21.163Z,15.38
2023-05-11T10:13:23.555Z,15.38
2023-05-11T10:18:20.761Z,15.35
2023-05-11T10:23:20.840Z,15.38
2023-05-11T10:28:23.902Z,15.47
2023-05-11T10:33:20.809Z,15.6
2023-05-11T10:38:22.596Z,15.78
2023-05-11T10:43:48.176Z,16
2023-05-11T10:48:31.965Z,16.16
2023-05-11T10:53:32.781Z,16.24
2023-05-11T10:58:29.689Z,16.46
2023-05-11T11:03:20.877Z,16.75
2023-05-11T11:08:20.534Z,17.02
2023-05-11T11:13:23.270Z,17.17
2023-05-11T11:18:29.813Z,17.33
2023-05-11T11:23:38.476Z,17.46
2023-05-11T11:28:21.453Z,17.52
2023-05-11T11:33:31.732Z,17.5
2023-05-11T11:38:21.586Z,17.52
2023-05-11T11:43:21.476Z,17.57
2023-05-11T11:48:24.707Z,17.6
2023-05-11T11:53:30.516Z,17.63
2023-05-11T11:58:30.329Z,17.63
2023-05-11T12:03:26.320Z,17.67
2023-05-11T12:08:21.260Z,17.73
2023-05-11T12:13:22.406Z,17.78
2023-05-11T12:18:28.138Z,17.9
2023-05-11T12:23:20.574Z,17.9
2023-05-11T12:28:26.384Z,17.88
2023-05-11T12:33:20.649Z,17.85
2023-05-11T12:38:20.763Z,17.82
2023-05-11T12:43:20.827Z,17.77
2023-05-11T12:48:20.886Z,17.65
2023-05-11T12:53:21.918Z,17.57
2023-05-11T12:58:20.904Z,17.57
2023-05-11T13:03:24.848Z,17.61
2023-05-11T13:08:22.976Z,17.65
2023-05-11T13:13:29.688Z,17.73
2023-05-11T13:18:23.196Z,17.88
2023-05-11T13:23:20.729Z,17.99
2023-05-11T13:28:21.322Z,18.11
2023-05-11T13:33:21.537Z,18.09
2023-05-11T13:38:20.536Z,18.06
2023-05-11T13:43:20.748Z,18.07
2023-05-11T13:48:20.839Z,18.17
2023-05-11T13:53:20.713Z,18.32
2023-05-11T13:58:23.763Z,18.76
2023-05-11T14:03:21.834Z,19.23
2023-05-11T14:08:22.811Z,19.59
2023-05-11T14:13:21.882Z,19.89
2023-05-11T14:18:24.961Z,20.04
2023-05-11T14:23:20.894Z,20.01
2023-05-11T14:28:20.232Z,20.12
2023-05-11T14:33:20.524Z,20.1
2023-05-11T14:38:23.067Z,20.11
2023-05-11T14:43:22.013Z,20.14
2023-05-11T14:48:22.723Z,20.21
2023-05-11T14:53:20.880Z,20.32
2023-05-11T14:58:20.976Z,20.31
2023-05-11T15:03:20.401Z,20.28
2023-05-11T15:08:29.025Z,20.2
2023-05-11T15:13:22.297Z,20.16
2023-05-11T15:18:20.531Z,20.15
2023-05-11T15:23:20.579Z,20.17
2023-05-11T15:28:21.568Z,20.17
2023-05-11T15:33:23.248Z,20.16
2023-05-11T15:38:20.499Z,20.13
2023-05-11T15:43:20.724Z,20.14
2023-05-11T15:48:20.422Z,20.08
2023-05-11T15:53:25.176Z,20.03
2023-05-11T15:58:20.338Z,19.98
2023-05-11T16:03:21.700Z,19.94
2023-05-11T16:08:20.533Z,19.9
2023-05-11T16:13:20.579Z,19.87
2023-05-11T16:18:21.922Z,19.8
2023-05-11T16:23:20.538Z,19.78
2023-05-11T16:28:24.334Z,19.75
2023-05-11T16:33:24.298Z,19.68
2023-05-11T16:38:23.981Z,19.62
2023-05-11T16:43:20.884Z,19.59
2023-05-11T16:48:20.434Z,19.55
2023-05-11T16:53:22.276Z,19.49
2023-05-11T16:58:23.260Z,19.39
2023-05-11T17:03:23.052Z,19.29
2023-05-11T17:08:20.550Z,19.19
2023-05-11T17:13:20.862Z,19.05
2023-05-11T17:18:23.292Z,18.93
2023-05-11T17:23:20.722Z,18.83
2023-05-11T17:28:21.199Z,18.72
2023-05-11T17:33:20.288Z,18.62
2023-05-11T17:38:20.475Z,18.5
2023-05-11T17:43:20.475Z,18.38
2023-05-11T17:48:21.884Z,18.27
2023-05-11T17:53:23.134Z,18.18
2023-05-11T17:58:21.474Z,18.08
2023-05-11T18:03:22.555Z,17.99
2023-05-11T18:08:23.250Z,17.88
2023-05-11T18:13:20.589Z,17.78
2023-05-11T18:18:23.829Z,17.66
2023-05-11T18:23:20.665Z,17.53
2023-05-11T18:28:20.459Z,17.43
2023-05-11T18:33:22.265Z,17.31
2023-05-11T18:38:20.623Z,17.21
2023-05-11T18:43:20.486Z,17.08
2023-05-11T18:48:21.388Z,16.97
2023-05-11T18:53:23.319Z,16.86
2023-05-11T18:58:20.573Z,16.74
2023-05-11T19:03:20.637Z,16.61
2023-05-11T19:08:22.984Z,16.48
2023-05-11T19:13:20.350Z,16.35
2023-05-11T19:18:21.895Z,16.22
2023-05-11T19:23:22.239Z,16.08
2023-05-11T19:28:20.986Z,15.95
2023-05-11T19:33:20.720Z,15.82
2023-05-11T19:38:27.925Z,15.68
2023-05-11T19:43:20.769Z,15.55
2023-05-11T19:48:20.672Z,15.44
2023-05-11T19:53:22.165Z,15.32
2023-05-11T19:58:20.422Z,15.21
2023-05-11T20:03:20.858Z,15.09
2023-05-11T20:08:22.965Z,14.99
2023-05-11T20:13:22.694Z,14.87
2023-05-11T20:18:23.290Z,14.76
2023-05-11T20:23:21.327Z,14.65
2023-05-11T20:28:20.963Z,14.55
2023-05-11T20:38:22.670Z,14.35
2023-05-11T20:43:21.444Z,14.28
2023-05-11T20:48:25.983Z,14.21
2023-05-11T20:53:23.382Z,14.12
2023-05-11T20:58:22.943Z,14.02
2023-05-11T21:03:22.331Z,13.97
2023-05-11T21:08:20.549Z,13.89
2023-05-11T21:13:30.134Z,13.82
2023-05-11T21:18:25.633Z,13.76
2023-05-11T21:23:20.262Z,13.72
2023-05-11T21:28:22.728Z,13.67
2023-05-11T21:33:25.874Z,13.62
2023-05-11T21:38:21.356Z,13.57
2023-05-11T21:43:22.900Z,13.52
2023-05-11T21:48:22.464Z,13.47
2023-05-11T21:53:21.506Z,13.42
2023-05-11T21:58:23.277Z,13.38
2023-05-11T22:03:21.665Z,13.33
2023-05-11T22:08:20.733Z,13.29
2023-05-11T22:13:22.991Z,13.24
2023-05-11T22:18:20.693Z,13.17
2023-05-11T22:23:21.065Z,13.12
2023-05-11T22:28:20.993Z,13.07
2023-05-11T22:33:23.025Z,13.03
2023-05-11T22:38:21.669Z,12.98
2023-05-11T22:43:22.166Z,12.93
2023-05-11T22:48:21.841Z,12.9
2023-05-11T22:53:20.966Z,12.86
2023-05-11T22:58:22.748Z,12.83
2023-05-11T23:03:20.565Z,12.81
2023-05-11T23:08:21.990Z,12.77
2023-05-11T23:13:22.741Z,12.74
2023-05-11T23:18:22.812Z,12.71
2023-05-11T23:23:22.595Z,12.69
2023-05-11T23:28:22.857Z,12.66
2023-05-11T23:33:21.841Z,12.62
2023-05-11T23:38:22.709Z,12.61
2023-05-11T23:43:20.622Z,12.59
2023-05-11T23:48:21.378Z,12.57
2023-05-11T23:53:20.602Z,12.55
2023-05-11T23:58:20.480Z,12.53
